Latest Weather Observations for Ulladulla

IDN60801

Issued at 10:35 pm EST Thursday 17 April 2014 (issued every 30 minutes, with the page automatically refreshed every 10 minutes)

About weather observations | Map of weather stations | Latest weather observations for NSW | Other Formats
Station Details ID: 069138 Name: ULLADULLA AWS Lat: -35.36 Lon: 150.48 Height: 35.7 m
Data from the previous 72 hours. | See also: Recent months at Ulladulla
Date/Time
EST
Temp
°C
App
Temp
°C
Dew
Point
Rel
Hum
%
Delta-T
°C
Wind Press
QNH
hPa
Press
MSL
hPa
Rain
since 9 am
mm
Dir
 
Spd
km/h
Gust
km/h
Spd
kts
Gust
kts
17/10:30pm 15.7 15.1 11.7 77 2.2 W 6 9 3 5 1019.2 - 0.0
17/10:00pm 15.5 14.7 11.7 78 2.0 W 7 13 4 7 1019.5 1019.5 0.0
17/09:30pm 15.4 14.2 11.6 78 2.1 W 9 11 5 6 1019.5 - 0.0
17/09:00pm 15.6 14.4 11.6 77 2.2 W 9 13 5 7 1019.4 1019.4 0.0
17/08:30pm 15.9 15.0 11.3 74 2.5 WSW 7 11 4 6 1019.5 - 0.0
17/08:00pm 16.3 15.4 11.5 73 2.6 WSW 7 11 4 6 1019.4 1019.4 0.0
17/07:30pm 17.0 16.2 11.7 71 2.9 SW 7 13 4 7 1019.2 - 0.0
17/07:00pm 17.3 16.7 11.6 69 3.1 SW 6 9 3 5 1019.2 1019.2 0.0
17/06:30pm 18.1 17.2 11.2 64 3.8 SSW 7 13 4 7 1019.0 - 0.0
17/06:00pm 19.1 16.4 11.7 62 4.1 S 17 26 9 14 1018.8 1018.8 0.0
17/05:30pm 19.1 16.1 11.9 63 4.0 S 19 24 10 13 1018.8 - 0.0
17/05:00pm 19.2 15.9 11.5 61 4.2 S 20 28 11 15 1018.6 1018.6 0.0
17/04:30pm 19.4 16.4 12.4 64 3.9 S 20 30 11 16 1018.5 - 0.0
17/04:00pm 19.5 16.6 13.0 66 3.7 S 20 28 11 15 1018.5 1018.5 0.0
17/03:30pm 19.8 16.9 13.0 65 3.9 S 20 33 11 18 1018.5 - 0.0
17/03:00pm 19.8 16.9 12.8 64 3.9 S 20 30 11 16 1018.6 1018.6 0.0
17/02:30pm 19.9 16.4 13.4 66 3.7 S 24 35 13 19 1018.8 - 0.0
17/02:00pm 20.3 16.4 12.0 59 4.6 S 24 33 13 18 1018.8 1018.8 0.0
17/01:30pm 20.5 16.1 10.3 52 5.5 S 24 33 13 18 1018.9 - 0.0
17/01:00pm 20.6 15.4 10.1 51 5.7 S 28 35 15 19 1019.0 1019.0 0.0
17/12:30pm 20.4 14.7 9.9 51 5.6 S 30 39 16 21 1019.2 - 0.0
17/12:00pm 20.6 17.6 11.8 57 4.9 S 19 30 10 16 1019.5 1019.5 0.0
17/11:30am 20.1 16.6 12.1 60 4.5 S 22 33 12 18 1019.9 - 0.0
17/11:00am 20.1 16.4 11.6 58 4.7 S 22 35 12 19 1020.1 1020.1 0.0
17/10:30am 19.6 16.0 10.0 54 5.1 SSW 19 26 10 14 1020.3 - 0.0
17/10:00am 19.4 15.9 10.1 55 5.0 SSW 19 28 10 15 1020.2 1020.2 0.0
17/09:30am 19.1 15.6 10.1 56 4.8 SSW 19 28 10 15 1020.3 - 0.0
17/09:00am 18.3 15.9 9.9 58 4.4 SW 13 19 7 10 1020.2 1020.2 0.0
17/08:30am 17.6 15.2 10.2 62 3.9 SW 13 24 7 13 1020.1 - 0.0
17/08:00am 16.3 14.4 10.4 68 3.1 WSW 11 19 6 10 1020.0 1020.0 0.0
17/07:30am 15.4 13.4 10.2 71 2.7 WSW 11 17 6 9 1019.8 - 0.0
17/07:00am 14.1 12.4 9.9 76 2.2 WSW 9 17 5 9 1019.4 1019.4 0.0
17/06:30am 14.1 12.4 9.9 76 2.2 WSW 9 17 5 9 1019.0 - 0.0
17/06:00am 14.1 12.4 9.7 75 2.3 WSW 9 15 5 8 1018.7 1018.7 0.0
17/05:30am 14.2 12.5 10.0 76 2.2 SW 9 13 5 7 1018.6 - 0.0
17/05:00am 13.9 12.3 10.1 78 2.0 SW 9 13 5 7 1018.4 1018.4 0.0
17/04:30am 13.7 12.3 9.7 77 2.1 WSW 7 15 4 8 1018.2 - 0.0
17/04:00am 14.2 12.5 9.8 75 2.3 WSW 9 13 5 7 1018.1 1018.1 0.0
17/03:30am 14.6 12.9 10.0 74 2.4 WSW 9 13 5 7 1018.2 - 0.0
17/03:00am 14.9 13.0 10.5 75 2.3 WSW 11 17 6 9 1018.1 1018.1 0.0
17/02:30am 14.8 13.3 10.4 75 2.3 WSW 9 15 5 8 1017.9 - 0.0
17/02:00am 14.7 12.7 10.3 75 2.3 WSW 11 17 6 9 1018.4 1018.4 0.0
17/01:30am 14.7 13.1 10.1 74 2.4 WSW 9 13 5 7 1018.6 - 0.0
17/01:00am 14.9 13.3 10.3 74 2.4 WSW 9 15 5 8 1019.1 1019.1 0.0
17/12:30am 15.0 13.4 10.2 73 2.5 WSW 9 17 5 9 1019.1 - 0.0
17/12:00am 15.0 13.3 10.0 72 2.6 WSW 9 13 5 7 1019.2 1019.2 0.0
 
Date/Time
EST
Temp
°C
App
Temp
°C
Dew
Point
Rel
Hum
%
Delta-T
°C
Wind Press
QNH
hPa
Press
MSL
hPa
Rain
since 9 am
mm
Dir
 
Spd
km/h
Gust
km/h
Spd
kts
Gust
kts
16/11:30pm 15.1 13.1 10.1 72 2.6 WSW 11 17 6 9 1019.3 - 0.0
16/11:00pm 15.2 13.2 10.0 71 2.7 WSW 11 15 6 8 1019.4 1019.4 0.0
16/10:30pm 15.6 13.7 10.4 71 2.7 WSW 11 17 6 9 1019.5 - 0.0
16/10:00pm 15.3 13.3 10.3 72 2.6 WSW 11 15 6 8 1019.7 1019.7 0.0
16/09:30pm 15.5 13.9 10.3 71 2.7 WSW 9 13 5 7 1019.8 - 0.0
16/09:00pm 15.7 14.2 10.7 72 2.6 WSW 9 15 5 8 1019.8 1019.8 0.0
16/08:30pm 15.4 13.9 10.4 72 2.6 WSW 9 13 5 7 1019.5 - 0.0
16/08:00pm 15.7 14.5 10.2 70 2.9 W 7 9 4 5 1019.3 1019.3 0.0
16/07:30pm 16.2 15.1 10.5 69 3.0 SW 7 13 4 7 1019.1 - 0.0
16/07:00pm 16.3 15.1 10.2 67 3.2 WSW 7 9 4 5 1019.1 1019.1 0.0
16/06:30pm 17.3 16.0 10.0 62 3.9 SW 7 13 4 7 1018.8 - 0.0
16/06:00pm 18.8 16.2 10.6 59 4.4 S 15 22 8 12 1018.7 1018.7 0.0
16/05:30pm 18.7 16.7 10.0 57 4.6 SSW 11 20 6 11 1018.4 - 0.0
16/05:00pm 19.2 16.4 11.5 61 4.2 S 17 22 9 12 1018.1 1018.1 0.0
16/04:30pm 19.4 16.2 11.2 59 4.5 S 19 28 10 15 1018.0 - 0.0
16/04:00pm 19.5 15.4 10.2 55 5.0 S 22 32 12 17 1018.0 1018.0 0.0
16/03:30pm 19.8 16.1 11.6 59 4.5 S 22 30 12 16 1018.1 - 0.0
16/03:00pm 20.0 16.2 11.2 57 4.8 S 22 32 12 17 1018.4 1018.4 0.0
16/02:30pm 19.9 15.8 11.4 58 4.7 S 24 33 13 18 1018.5 - 0.0
16/02:00pm 20.1 15.7 11.8 59 4.6 S 26 33 14 18 1018.4 1018.4 0.0
16/01:30pm 20.0 15.2 11.8 59 4.6 S 28 35 15 19 1018.4 - 0.0
16/01:00pm 20.1 15.7 11.6 58 4.7 S 26 35 14 19 1018.6 1018.6 0.0
16/12:30pm 20.1 15.6 11.3 57 4.8 S 26 35 14 19 1019.0 - 0.0
16/12:00pm 19.9 15.2 10.6 55 5.0 S 26 35 14 19 1019.5 1019.5 0.0
16/11:30am 20.1 16.7 11.1 56 4.9 SSW 20 32 11 17 1019.9 - 0.0
16/11:00am 19.8 16.7 10.2 54 5.2 SSW 17 28 9 15 1020.2 1020.2 0.0
16/10:30am 19.1 15.2 9.6 54 5.0 SSW 20 30 11 16 1020.5 - 0.0
16/10:00am 18.8 14.9 8.7 52 5.2 SW 19 30 10 16 1020.6 1020.6 0.0
16/09:30am 18.4 14.6 8.9 54 5.0 SSW 19 33 10 18 1020.7 - 0.0
16/09:00am 18.0 14.6 9.1 56 4.6 SSW 17 30 9 16 1020.8 1020.8 0.0
16/08:30am 17.2 13.6 8.4 56 4.5 SW 17 26 9 14 1020.7 - 0.0
16/08:00am 16.3 12.3 8.3 59 4.1 SSW 19 28 10 15 1020.5 1020.5 0.0
16/07:30am 15.4 12.1 8.2 62 3.6 SW 15 26 8 14 1020.4 - 0.0
16/07:00am 14.6 10.9 7.9 64 3.3 SW 17 30 9 16 1020.2 1020.2 0.0
16/06:30am 13.9 10.6 7.9 67 3.0 SW 15 22 8 12 1019.9 - 0.0
16/06:00am 14.1 10.8 8.1 67 3.0 SW 15 26 8 14 1019.7 1019.7 0.0
16/05:30am 14.0 10.7 8.0 67 3.0 SW 15 24 8 13 1019.6 - 0.0
16/05:00am 14.3 11.0 8.0 66 3.1 SW 15 24 8 13 1019.6 1019.6 0.0
16/04:30am 14.5 10.9 8.2 66 3.2 SW 17 30 9 16 1019.5 - 0.0
16/04:00am 14.5 10.9 8.2 66 3.1 SW 17 30 9 16 1019.5 1019.5 0.0
16/03:30am 14.5 10.5 8.2 66 3.2 SW 19 28 10 15 1019.4 - 0.0
16/03:00am 14.6 10.6 8.1 65 3.2 SW 19 28 10 15 1019.5 1019.5 0.0
16/02:30am 14.7 10.6 8.0 64 3.3 SW 19 30 10 16 1019.8 - 0.0
16/02:00am 14.9 10.7 8.2 64 3.4 SW 20 28 11 15 1020.2 1020.2 0.0
16/01:30am 15.1 10.9 8.3 64 3.4 SW 20 32 11 17 1020.5 - 0.0
16/01:00am 15.2 11.2 8.2 63 3.5 SSW 19 30 10 16 1020.9 1020.9 0.0
16/12:30am 15.3 11.3 8.3 63 3.5 SW 19 33 10 18 1021.0 - 0.0
16/12:00am 15.4 11.3 8.6 64 3.4 SW 20 33 11 18 1021.1 1021.1 0.0
 
Date/Time
EST
Temp
°C
App
Temp
°C
Dew
Point
Rel
Hum
%
Delta-T
°C
Wind Press
QNH
hPa
Press
MSL
hPa
Rain
since 9 am
mm
Dir
 
Spd
km/h
Gust
km/h
Spd
kts
Gust
kts
15/11:30pm 15.3 11.5 9.0 66 3.2 SW 19 32 10 17 1021.3 - 0.0
15/11:00pm 15.4 11.7 9.5 68 3.0 SW 19 33 10 18 1021.4 1021.4 0.0
15/10:30pm 15.5 12.3 9.8 69 3.0 SW 17 37 9 20 1021.6 - 0.0
15/10:00pm 15.7 12.1 10.5 71 2.7 SW 20 33 11 18 1021.5 1021.5 0.0
15/09:30pm 15.9 13.0 10.9 72 2.7 SW 17 26 9 14 1021.5 - 0.0
15/09:00pm 16.3 13.5 11.2 72 2.7 SW 17 26 9 14 1021.6 1021.6 0.0
15/08:30pm 16.9 14.2 11.8 72 2.8 SW 17 30 9 16 1021.3 - 0.0
15/08:00pm 17.1 14.3 11.4 69 3.1 SW 17 30 9 16 1021.2 1021.2 0.0
15/07:30pm 17.7 14.9 12.6 72 2.8 SSW 19 37 10 20 1021.1 - 0.0
15/07:00pm 18.2 15.2 12.0 67 3.4 SW 19 26 10 14 1021.2 1021.2 0.0
15/06:30pm 19.2 11.6 11.7 62 4.1 S 43 56 23 30 1020.6 - 0.0
15/06:00pm 19.3 12.2 13.3 68 3.4 S 43 54 23 29 1020.2 1020.2 0.0
15/05:30pm 19.5 13.0 14.1 71 3.1 S 41 54 22 29 1020.1 - 0.0
15/05:00pm 19.0 12.4 13.6 71 3.1 S 41 57 22 31 1019.8 1019.8 0.0
15/04:30pm 19.3 12.6 13.5 69 3.3 S 41 52 22 28 1019.7 - 0.0
15/04:00pm 19.1 13.4 14.1 73 2.9 S 37 56 20 30 1019.6 1019.6 0.0
15/03:59pm 19.2 13.5 14.2 73 2.9 S 37 56 20 30 1019.6 - 0.0
15/03:30pm 19.1 13.0 14.1 73 2.9 S 39 52 21 28 1019.7 - 0.0
15/03:20pm 18.3 12.9 15.0 81 1.9 S 37 46 20 25 1019.8 - 0.0
15/03:00pm 18.0 14.4 15.3 84 1.6 SSE 28 41 15 22 1020.0 1020.0 0.0
15/02:54pm 18.3 14.3 15.2 82 1.8 SSE 30 39 16 21 1020.0 - 0.0
15/02:42pm 17.8 11.6 13.9 78 2.2 S 39 48 21 26 1019.8 - 0.0
15/02:30pm 17.7 15.0 15.5 87 1.3 SSE 24 39 13 21 1019.8 - 0.0
15/02:09pm 19.2 14.9 15.3 78 2.3 S 32 50 17 27 1019.7 - 0.0
15/02:00pm 20.0 13.6 13.2 65 3.9 S 39 48 21 26 1019.5 1019.5 0.0
15/01:30pm 20.4 15.6 14.1 67 3.7 S 32 44 17 24 1019.6 - 0.0
15/01:00pm 20.2 15.4 13.9 67 3.6 S 32 44 17 24 1019.6 1019.6 0.0
15/12:30pm 20.5 16.4 13.9 66 3.8 S 28 43 15 23 1020.0 - 0.0
15/12:00pm 20.1 17.1 13.6 66 3.7 S 22 35 12 19 1020.4 1020.4 0.0
15/11:30am 20.0 16.5 13.5 66 3.7 S 24 33 13 18 1020.7 - 0.0
15/11:00am 19.5 16.4 12.3 63 4.0 S 20 33 11 18 1020.9 1020.9 0.0
15/10:30am 19.1 15.8 10.9 59 4.5 SSW 19 26 10 14 1021.1 - 0.0
15/10:00am 18.6 14.5 10.2 58 4.5 SSW 22 32 12 17 1021.4 1021.4 0.0
15/09:30am 18.3 14.3 9.1 55 4.8 SSW 20 30 11 16 1021.5 - 0.0
15/09:00am 18.0 14.0 9.1 56 4.6 SSW 20 32 11 17 1021.5 1021.5 0.0
15/08:30am 17.3 14.0 7.9 54 4.8 SW 15 24 8 13 1021.4 - 0.0
15/08:00am 16.4 12.9 7.3 55 4.5 SW 15 22 8 12 1021.2 1021.2 0.0
15/07:30am 15.5 12.3 6.8 56 4.3 SW 13 20 7 11 1021.1 - 0.0
15/07:00am 14.4 11.5 6.7 60 3.7 WSW 11 19 6 10 1020.9 1020.9 0.0
15/06:30am 13.6 10.6 6.2 61 3.5 SW 11 17 6 9 1020.7 - 0.0
15/06:00am 13.5 10.2 6.4 62 3.4 WSW 13 19 7 10 1020.6 1020.6 0.0
15/05:30am 13.1 10.2 6.7 65 3.1 WSW 11 17 6 9 1020.6 - 0.0
15/05:00am 13.1 10.3 6.9 66 3.0 WSW 11 15 6 8 1020.6 1020.6 0.0
15/04:30am 12.7 10.2 6.7 67 2.9 WSW 9 13 5 7 1020.6 - 0.0
15/04:00am 13.4 10.9 6.7 64 3.2 SW 9 15 5 8 1020.5 1020.5 0.0
15/03:30am 12.9 10.6 7.4 69 2.7 SW 9 15 5 8 1020.4 - 0.0
15/03:00am 13.1 10.8 7.5 69 2.7 WSW 9 13 5 7 1020.5 1020.5 0.0
15/02:30am 13.2 10.9 7.4 68 2.8 SW 9 13 5 7 1020.6 - 0.0
15/02:00am 13.6 11.3 7.6 67 2.9 SW 9 15 5 8 1020.7 1020.7 0.0
15/01:30am 13.5 11.3 7.7 68 2.9 WSW 9 13 5 7 1020.8 - 0.0
15/01:00am 14.3 11.3 7.8 65 3.2 SW 13 20 7 11 1021.0 1021.0 0.0
15/12:30am 14.3 11.4 8.3 67 3.0 SW 13 19 7 10 1021.2 - 0.0
15/12:00am 14.8 12.0 8.5 66 3.2 SW 13 24 7 13 1021.2 1021.2 0.0
 
Date/Time
EST
Temp
°C
App
Temp
°C
Dew
Point
Rel
Hum
%
Delta-T
°C
Wind Press
QNH
hPa
Press
MSL
hPa
Rain
since 9 am
mm
Dir
 
Spd
km/h
Gust
km/h
Spd
kts
Gust
kts
14/11:30pm 14.9 11.9 9.1 68 3.0 SW 15 22 8 12 1021.2 - 0.0
14/11:00pm 14.8 11.9 9.6 71 2.7 SW 15 22 8 12 1021.5 1021.5 0.0

Other Formats:

Comma delimited format used in spreadsheet applications
http://www.bom.gov.au/fwo/IDN60801/IDN60801.94938.axf

JavaScript Object Notation format (JSON) in row-major order
http://www.bom.gov.au/fwo/IDN60801/IDN60801.94938.json